AirNav   Everest Fuels
 
 1329 users online  

43NH Trayport Heliport
Rollinsford, New Hampshire, USA


FAA INFORMATION EFFECTIVE 30 JANUARY 2020

Location

FAA Identifier: 43NH
Lat/Long: 43-13-22.9600N 070-49-53.6300W
43-13.382667N 070-49.893833W
43.2230444,-70.8315639
(estimated)
Elevation: 108 ft. / 33 m (estimated)
From city: 1 mile SW of ROLLINSFORD, NH
Time zone: UTC -5 (UTC -4 during Daylight Saving Time)
Zip code: 03869

Heliport Operations

Heliport use: Private use. Permission required prior to landing
Activation date: 04/2018
Control tower: no
ARTCC: BOSTON CENTER
FSS: BANGOR FLIGHT SERVICE STATION
Attendance: 
Segmented circle: no

Heliport Communications

WX ASOS at DAW (6 nm NW): 135.275 (603-332-7814)
WX AWOS-3PT at SFM (12 nm NE): 120.025 (207-324-1958)

Nearby radio navigation aids

VOR radial/distance  VOR name  Freq  Var
PSMr016/8.3PEASE VOR/DME116.5016W
ENEr235/15.4KENNEBUNK VOR/DME117.1017W
LWMr037/31.2LAWRENCE VOR/DME112.5015W
MHTr063/31.8MANCHESTER VOR/DME114.4015W
CONr105/32.5CONCORD VOR/DME112.9015W

 
NDB name  Hdg/Dist  Freq  Var  ID
ROLLINSat field26016WESG . ... --.

Heliport Services

Runway Information

Helipad H1

Dimensions: 40 x 40 ft. / 12 x 12 m
Surface: turf, in fair condition
Latitude: 43-13.382667N
Longitude: 070-49.893833W
Elevation: 108.0 ft.
Traffic pattern: leftleft
Runway heading: 045 true true
Touchdown point: yes, no lightsno

Heliport Ownership and Management from official FAA records

Ownership: Privately-owned
Owner: JARED TRAYER
2 COTTAGE LN
ROLLINSFORD, NH 03869
Phone 603-520-6468
Manager: JARED TRAYER
2 COTTAGE LN
ROLLINSFORD, NH 03869
Phone 603-520-6468

Heliport Operational Statistics

Aircraft operations: 24/year
100% local general aviation

Instrument Procedures

There are no published instrument procedures at 43NH.

Some nearby airports with instrument procedures:

3B4 - Littlebrook Air Park (5 nm SE)
KDAW - Skyhaven Airport (6 nm NW)
KPSM - Portsmouth International Airport at Pease (9 nm S)
KSFM - Sanford Seacoast Regional Airport (12 nm NE)
B19 - Biddeford Municipal Airport (21 nm NE)
 
Loc | Ops | Rwys | IFR | FBO | Links
Com | Nav | Svcs | Stats | Notes
Aerial photo
No photo
 
Airport distance calculator
Flying to Trayport Heliport? Find the distance to fly.

From to 43NH

Sunrise and sunset
Times for 17-Feb-2020
 Local
(UTC-5)
 Zulu
(UTC)
Morning civil twilight06:1011:10
Sunrise06:3911:39
Sunset17:1522:15
Evening civil twilight17:4522:45

Current date and time
Zulu (UTC)  17-Feb-2020 15:40:24
Local (UTC-5)  17-Feb-2020 10:40:24
 
METAR
KDAW 
5nm NW 
171451Z AUTO 30014G22KT 10SM -RA CLR 02/M08 A3016 RMK AO2 RAB15 SLP215 P0000 60000 T00221083 51023
KPSM 
9nm S 
171456Z 31012KT 10SM FEW045 03/M07 A3016 RMK AO2A SLP217 T00271072 51022
KSFM 
11nm NE 
171456Z AUTO 31012G22KT 10SM CLR 02/M10 A3017 RMK AO2 SLP222 6//// T00171100 51022 FZRANO PNO $
TAF
KPSM 
9nm S 
171132Z 1712/1812 VRB04KT P6SM SCT150 FM171400 28005KT P6SM SKC FM171800 30009G18KT P6SM SKC FM180000 VRB04KT P6SM SKC
NOTAMs
Click for the latest NOTAMs
NOTAMs are issued by the DoD/FAA and will open in a separate window not controlled by AirNav.

 

 
 

Would you like to see your business listed on this page?

 If your business provides an interesting product or service to pilots, flight crews, aircraft, or users of the Trayport Heliport, you should consider listing it here.  To start the listing process, click on the button below
 
Add a business
 

Other Pages about Trayport Heliport

Update a link
 
Copyright © AirNav, LLC. All rights reserved. Privacy Policy  Contact